Time;durP1;ratioP1;P1;durP2;ratioP2;P2;SDS_P1;SDS_P2;PMS_P1;PMS_P2;Temp;Humidity;BMP_temperature;BMP_pressure;BME280_temperature;BME280_humidity;BME280_pressure;Samples;Min_cycle;Max_cycle;Signal;HPM_P1;HPM_P2
2021/06/26 00:00:53;;;;;;;9.90;8.90;;;18.60;1.00;;;;;;6098961;23;20173;-64
2021/06/26 00:03:24;;;;;;;8.47;7.67;;;18.60;69.70;;;;;;6099273;23;20400;-64
2021/06/26 00:05:50;;;;;;;8.93;8.10;;;18.60;99.90;;;;;;6108804;23;20391;-63
2021/06/26 00:08:16;;;;;;;9.63;8.67;;;18.50;99.90;;;;;;6108440;23;20534;-63
2021/06/26 00:10:44;;;;;;;10.07;8.83;;;18.30;1.00;;;;;;6108539;23;20726;-63
2021/06/26 00:13:10;;;;;;;13.80;11.13;;;18.20;99.90;;;;;;6109104;23;20913;-64
2021/06/26 00:15:36;;;;;;;9.83;8.80;;;18.20;99.90;;;;;;6108660;23;20386;-66
2021/06/26 00:18:02;;;;;;;9.67;8.77;;;18.30;1.00;;;;;;6108380;23;20720;-67
2021/06/26 00:20:27;;;;;;;9.60;8.63;;;18.20;1.00;;;;;;6108657;23;20218;-66
2021/06/26 00:22:54;;;;;;;10.53;9.63;;;18.30;1.00;;;;;;6098990;23;20490;-66
2021/06/26 00:25:22;;;;;;;9.80;8.90;;;18.10;99.90;;;;;;6108664;23;20175;-63
2021/06/26 00:27:47;;;;;;;9.20;8.27;;;18.20;99.90;;;;;;6108502;23;20419;-63
2021/06/26 00:30:13;;;;;;;11.03;8.00;;;18.20;1.00;;;;;;6108572;23;20443;-62
2021/06/26 00:32:39;;;;;;;8.20;7.23;;;18.00;1.00;;;;;;6108901;23;20206;-62
2021/06/26 00:35:05;;;;;;;10.27;9.17;;;18.00;1.00;;;;;;6099221;23;20397;-62
2021/06/26 00:37:31;;;;;;;8.37;7.57;;;18.00;1.00;;;;;;6108879;23;20554;-62
2021/06/26 00:39:56;;;;;;;8.00;7.40;;;18.00;1.00;;;;;;6108658;23;20478;-62
2021/06/26 00:42:22;;;;;;;9.07;8.17;;;18.10;99.90;;;;;;6122293;23;20163;-62
2021/06/26 00:44:47;;;;;;;9.00;7.47;;;18.10;58.30;;;;;;6108866;23;20159;-62
2021/06/26 00:47:13;;;;;;;9.33;7.83;;;18.00;99.90;;;;;;6108735;23;20170;-62
2021/06/26 00:49:41;;;;;;;8.40;7.43;;;18.10;99.90;;;;;;6108417;23;20179;-66
2021/06/26 00:52:07;;;;;;;7.30;6.60;;;18.10;99.90;;;;;;6108370;23;20155;-67
2021/06/26 00:54:36;;;;;;;9.90;9.03;;;18.20;4.30;;;;;;6108374;23;20395;-68
2021/06/26 00:57:02;;;;;;;9.63;8.73;;;18.30;82.80;;;;;;6108244;23;20400;-67
2021/06/26 00:59:28;;;;;;;9.90;8.97;;;18.30;1.00;;;;;;6121841;23;20396;-66
2021/06/26 01:01:54;;;;;;;9.10;8.37;;;18.40;99.90;;;;;;6108240;23;20159;-67
2021/06/26 01:04:19;;;;;;;10.10;9.10;;;18.40;1.00;;;;;;6108272;23;20431;-66
2021/06/26 01:06:45;;;;;;;9.47;8.67;;;18.50;99.90;;;;;;6108325;23;20586;-66
2021/06/26 01:09:11;;;;;;;9.87;8.97;;;18.30;1.00;;;;;;6108437;23;20220;-66
2021/06/26 01:11:36;;;;;;;9.83;8.93;;;18.30;1.00;;;;;;6108499;23;20160;-65
2021/06/26 01:14:02;;;;;;;8.83;8.07;;;18.20;1.00;;;;;;6108171;23;20152;-65
2021/06/26 01:16:28;;;;;;;9.43;8.60;;;18.20;1.00;;;;;;6108180;23;20159;-65
2021/06/26 01:18:54;;;;;;;10.50;9.50;;;18.00;1.00;;;;;;6107857;23;20742;-65
2021/06/26 01:21:20;;;;;;;10.23;9.27;;;17.90;99.90;;;;;;6108254;23;20167;-65
2021/06/26 01:23:53;;;;;;;9.63;8.83;;;17.80;99.90;;;;;;6108057;23;20167;-65
2021/06/26 01:26:24;;;;;;;11.00;10.00;;;17.80;29.80;;;;;;6108118;23;20407;-65
2021/06/26 01:28:50;;;;;;;9.80;8.97;;;17.80;1.00;;;;;;6073696;23;20478;-65
2021/06/26 01:31:16;;;;;;;10.37;9.47;;;17.80;1.00;;;;;;6098200;23;20434;-65
2021/06/26 01:33:41;;;;;;;11.30;10.20;;;17.70;1.00;;;;;;6108284;23;20160;-65
2021/06/26 01:36:07;;;;;;;10.63;9.67;;;17.70;99.90;;;;;;6108021;23;20159;-65
2021/06/26 01:38:32;;;;;;;10.23;9.30;;;17.50;99.90;;;;;;6107678;23;20420;-66
2021/06/26 01:40:58;;;;;;;10.43;8.80;;;17.50;1.00;;;;;;6107880;23;20392;-67
2021/06/26 01:43:23;;;;;;;10.70;9.20;;;17.40;99.90;;;;;;6098283;23;20226;-67
2021/06/26 01:45:49;;;;;;;9.97;8.97;;;17.30;99.90;;;;;;6107796;23;20159;-67
2021/06/26 01:48:15;;;;;;;10.00;9.10;;;17.30;99.90;;;;;;6107552;23;20171;-67
2021/06/26 01:50:40;;;;;;;10.53;9.53;;;17.30;99.90;;;;;;6108249;23;20559;-67
2021/06/26 01:53:06;;;;;;;9.50;8.60;;;17.30;99.90;;;;;;6108005;23;20163;-67
2021/06/26 01:55:32;;;;;;;9.20;8.30;;;17.40;99.90;;;;;;6107875;23;20190;-67
2021/06/26 01:57:57;;;;;;;8.90;8.10;;;17.30;24.50;;;;;;6107794;23;20156;-67
2021/06/26 02:00:24;;;;;;;9.17;8.27;;;17.10;1.00;;;;;;6107922;23;20187;-65
2021/06/26 02:02:51;;;;;;;9.43;8.53;;;17.10;78.80;;;;;;6108050;23;20155;-65
2021/06/26 02:05:18;;;;;;;8.97;8.00;;;17.20;1.00;;;;;;6098334;23;20391;-65
2021/06/26 02:07:47;;;;;;;10.23;8.40;;;17.10;1.00;;;;;;6098800;23;20458;-66
2021/06/26 02:10:14;;;;;;;9.00;8.30;;;17.00;1.00;;;;;;6108064;23;20428;-66
2021/06/26 02:12:40;;;;;;;9.60;8.70;;;17.00;1.00;;;;;;6107741;23;20431;-66
2021/06/26 02:15:07;;;;;;;10.30;9.37;;;16.90;1.00;;;;;;6107664;23;20387;-66
2021/06/26 02:17:33;;;;;;;10.07;9.13;;;16.90;1.00;;;;;;6097708;23;20438;-67
2021/06/26 02:19:58;;;;;;;9.20;8.30;;;16.80;1.00;;;;;;6107696;23;20391;-64
2021/06/26 02:22:24;;;;;;;9.50;8.50;;;16.80;1.00;;;;;;6107696;23;20518;-64
2021/06/26 02:24:49;;;;;;;10.37;9.23;;;16.80;1.00;;;;;;6107579;23;20222;-64
2021/06/26 02:27:15;;;;;;;9.70;8.80;;;16.80;1.00;;;;;;6107599;23;20182;-63
2021/06/26 02:29:40;;;;;;;10.03;9.13;;;16.80;1.00;;;;;;6107591;23;20186;-63
2021/06/26 02:32:07;;;;;;;9.63;8.83;;;16.80;1.00;;;;;;6107636;23;20575;-63
2021/06/26 02:34:33;;;;;;;9.60;8.70;;;17.00;99.90;;;;;;6107530;23;20152;-63
2021/06/26 02:36:59;;;;;;;9.93;8.93;;;17.10;99.90;;;;;;6107414;23;20394;-67
2021/06/26 02:39:24;;;;;;;10.57;9.57;;;17.10;1.00;;;;;;6107246;23;20388;-68
2021/06/26 02:41:50;;;;;;;10.70;9.47;;;16.90;1.00;;;;;;6107282;23;20482;-68
2021/06/26 02:44:16;;;;;;;10.03;9.20;;;17.10;1.00;;;;;;6097919;23;20174;-67
2021/06/26 02:46:41;;;;;;;9.80;8.80;;;17.10;1.00;;;;;;6107979;23;20166;-64
2021/06/26 02:49:07;;;;;;;9.10;8.23;;;17.20;1.00;;;;;;6107737;23;20615;-68
2021/06/26 02:51:32;;;;;;;9.53;8.73;;;17.30;1.00;;;;;;6107513;23;20171;-68
2021/06/26 02:53:58;;;;;;;9.27;8.37;;;17.40;99.90;;;;;;6120846;23;20175;-68
2021/06/26 02:56:24;;;;;;;10.57;9.63;;;17.60;99.90;;;;;;6107453;23;20148;-68
2021/06/26 02:58:49;;;;;;;9.43;8.53;;;17.60;1.00;;;;;;6120416;23;20254;-68
2021/06/26 03:01:15;;;;;;;9.57;8.57;;;17.70;99.90;;;;;;6107221;23;20575;-68
2021/06/26 03:03:40;;;;;;;9.27;8.47;;;17.70;1.00;;;;;;6107288;23;20158;-68
2021/06/26 03:06:06;;;;;;;9.77;8.87;;;17.70;1.00;;;;;;6107487;23;20638;-68
2021/06/26 03:08:31;;;;;;;8.80;8.07;;;17.90;1.00;;;;;;6107167;23;20190;-67
2021/06/26 03:10:57;;;;;;;12.00;9.20;;;18.00;99.90;;;;;;6107332;23;20183;-67
2021/06/26 03:13:23;;;;;;;9.53;8.10;;;18.20;1.00;;;;;;6107469;23;20258;-67
2021/06/26 03:15:48;;;;;;;10.30;9.07;;;18.20;99.90;;;;;;6107340;23;20156;-67
2021/06/26 03:18:14;;;;;;;9.30;8.60;;;18.20;99.90;;;;;;6106976;23;20152;-68
2021/06/26 03:20:40;;;;;;;8.93;8.13;;;18.30;99.90;;;;;;6107507;23;20430;-67
2021/06/26 03:23:06;;;;;;;9.00;8.23;;;18.30;99.90;;;;;;6107207;23;20226;-68
2021/06/26 03:25:31;;;;;;;9.50;8.60;;;18.20;99.90;;;;;;6120480;23;20203;-68
2021/06/26 03:27:57;;;;;;;9.33;8.40;;;18.20;1.00;;;;;;6120453;23;20724;-68
2021/06/26 03:30:23;;;;;;;10.33;9.40;;;18.20;99.90;;;;;;6097195;23;20599;-68
2021/06/26 03:32:49;;;;;;;10.50;9.53;;;18.20;15.70;;;;;;6120637;23;20406;-67
2021/06/26 03:35:14;;;;;;;10.37;9.47;;;18.00;99.90;;;;;;6107273;23;20234;-68
2021/06/26 03:37:41;;;;;;;10.67;9.60;;;18.20;99.90;;;;;;6107051;23;20156;-68
2021/06/26 03:40:07;;;;;;;11.50;10.40;;;18.40;1.00;;;;;;6107444;23;20236;-68
2021/06/26 03:42:33;;;;;;;10.60;9.60;;;18.60;91.60;;;;;;6120666;23;20749;-67
2021/06/26 03:44:58;;;;;;;10.20;9.10;;;18.80;83.60;;;;;;6107254;23;20886;-68
2021/06/26 03:47:25;;;;;;;11.60;9.47;;;19.00;1.00;;;;;;6107210;23;20231;-68
2021/06/26 03:49:51;;;;;;;11.33;10.13;;;19.20;1.00;;;;;;6107196;23;20642;-68
2021/06/26 03:52:17;;;;;;;9.90;9.07;;;19.30;99.90;;;;;;6096464;23;20415;-69
2021/06/26 03:54:43;;;;;;;9.23;8.30;;;19.40;45.10;;;;;;6109266;23;20903;-68
2021/06/26 03:57:09;;;;;;;10.33;9.33;;;19.20;99.90;;;;;;6109130;23;20166;-67
2021/06/26 03:59:35;;;;;;;9.97;8.97;;;19.40;99.90;;;;;;6108509;23;20436;-69
2021/06/26 04:02:00;;;;;;;10.57;9.57;;;19.40;1.00;;;;;;6107442;23;20155;-68
2021/06/26 04:04:26;;;;;;;9.80;8.83;;;19.60;11.50;;;;;;6122216;23;20486;-68
2021/06/26 04:06:52;;;;;;;10.23;9.33;;;20.10;1.00;;;;;;6108570;23;20214;-69
2021/06/26 04:09:17;;;;;;;10.40;9.50;;;20.70;1.00;;;;;;6122501;23;20219;-69
2021/06/26 04:11:43;;;;;;;10.20;9.20;;;20.90;1.00;;;;;;6107970;23;20580;-69
2021/06/26 04:14:09;;;;;;;10.30;9.20;;;20.90;99.90;;;;;;6108639;23;20234;-68
2021/06/26 04:16:34;;;;;;;10.53;9.63;;;21.00;99.90;;;;;;6108548;23;20190;-68
2021/06/26 04:19:00;;;;;;;9.13;8.30;;;21.00;99.90;;;;;;6108494;23;20160;-68
2021/06/26 04:21:26;;;;;;;9.33;8.43;;;21.00;99.90;;;;;;6108591;23;20155;-69
2021/06/26 04:23:51;;;;;;;10.20;9.10;;;21.00;99.90;;;;;;6099205;23;20234;-68
2021/06/26 04:26:17;;;;;;;8.03;7.43;;;20.90;1.00;;;;;;6108698;23;20171;-68
2021/06/26 04:28:42;;;;;;;8.93;8.17;;;20.50;1.00;;;;;;6108202;23;20250;-68
2021/06/26 04:31:08;;;;;;;9.97;9.07;;;20.40;1.00;;;;;;6099246;23;20575;-68
2021/06/26 04:33:34;;;;;;;8.67;7.90;;;20.20;1.00;;;;;;6108525;23;20563;-68
2021/06/26 04:36:00;;;;;;;10.77;9.67;;;20.00;1.00;;;;;;6108337;23;20155;-67
2021/06/26 04:38:25;;;;;;;9.50;8.70;;;19.80;99.90;;;;;;6098390;23;20183;-69
2021/06/26 04:40:52;;;;;;;9.13;8.33;;;19.90;99.90;;;;;;6108520;23;20395;-69
2021/06/26 04:43:19;;;;;;;9.20;8.40;;;20.10;99.90;;;;;;6108770;23;20239;-69
2021/06/26 04:45:46;;;;;;;8.43;7.63;;;20.80;99.90;;;;;;6098929;23;20400;-67
2021/06/26 04:48:15;;;;;;;9.33;8.50;;;22.40;1.00;;;;;;6107913;23;20434;-66
2021/06/26 04:50:41;;;;;;;9.30;8.50;;;24.10;1.00;;;;;;6108277;23;20470;-66
2021/06/26 04:53:06;;;;;;;8.40;7.60;;;25.70;1.00;;;;;;6108098;23;20866;-66
2021/06/26 04:55:32;;;;;;;9.13;8.43;;;26.40;1.00;;;;;;6108252;23;20448;-66
2021/06/26 04:57:57;;;;;;;8.70;8.00;;;26.80;1.00;;;;;;6108124;23;20242;-66
2021/06/26 05:00:23;;;;;;;9.30;8.47;;;27.20;1.00;;;;;;6108068;23;20167;-66
2021/06/26 05:02:49;;;;;;;11.90;8.60;;;28.60;1.00;;;;;;6108347;23;20163;-66
2021/06/26 05:05:14;;;;;;;9.87;9.00;;;29.40;1.00;;;;;;6098268;23;20223;-66
2021/06/26 05:07:40;;;;;;;9.70;8.80;;;29.80;1.00;;;;;;6098546;23;20174;-66
2021/06/26 05:10:06;;;;;;;9.30;8.50;;;29.00;1.00;;;;;;6107885;23;20175;-67
2021/06/26 05:12:31;;;;;;;9.57;8.70;;;27.90;1.00;;;;;;6108227;23;20182;-67
2021/06/26 05:14:57;;;;;;;11.03;10.13;;;26.50;1.00;;;;;;6108194;23;20697;-67
2021/06/26 05:17:22;;;;;;;11.00;10.10;;;26.00;1.00;;;;;;6121352;23;20214;-67
2021/06/26 05:19:48;;;;;;;9.63;8.73;;;25.50;1.00;;;;;;6106793;23;20575;-67
2021/06/26 05:22:14;;;;;;;11.70;10.77;;;25.10;1.00;;;;;;6097863;23;20160;-67
2021/06/26 05:24:40;;;;;;;11.93;10.83;;;24.60;1.00;;;;;;6107804;23;20168;-67
2021/06/26 05:27:06;;;;;;;12.03;10.83;;;24.50;1.00;;;;;;6107785;23;20536;-68
2021/06/26 05:29:32;;;;;;;11.53;10.50;;;24.20;1.00;;;;;;6107663;23;20788;-68
2021/06/26 05:31:57;;;;;;;12.07;11.07;;;24.20;1.00;;;;;;6108053;23;20392;-67
2021/06/26 05:34:23;;;;;;;11.60;10.50;;;24.20;1.00;;;;;;6121408;23;20779;-67
2021/06/26 05:36:49;;;;;;;12.77;11.67;;;23.80;1.00;;;;;;6107086;23;20462;-69
2021/06/26 05:39:15;;;;;;;11.50;10.30;;;23.00;61.40;;;;;;6121259;23;20466;-69
2021/06/26 05:41:40;;;;;;;12.10;10.90;;;23.20;35.20;;;;;;6107979;23;20151;-69
2021/06/26 05:44:06;;;;;;;13.37;12.10;;;22.80;70.70;;;;;;6107810;23;20415;-69
2021/06/26 05:46:32;;;;;;;11.70;10.53;;;23.10;7.60;;;;;;6097833;23;20168;-68
2021/06/26 05:48:57;;;;;;;13.03;11.77;;;23.20;1.00;;;;;;6107218;23;20586;-68
2021/06/26 05:51:23;;;;;;;11.70;10.50;;;24.90;1.00;;;;;;6108597;23;20339;-68
2021/06/26 05:53:49;;;;;;;12.87;11.77;;;27.40;1.00;;;;;;6108719;23;20156;-68
2021/06/26 05:56:15;;;;;;;11.47;10.53;;;28.50;1.00;;;;;;6108337;23;20183;-68
2021/06/26 05:58:41;;;;;;;12.77;11.57;;;30.80;1.00;;;;;;6108333;23;20765;-69
2021/06/26 06:01:10;;;;;;;12.00;11.07;;;31.70;1.00;;;;;;6108191;23;20486;-69
2021/06/26 06:03:36;;;;;;;11.30;10.30;;;30.80;1.00;;;;;;6097918;23;20163;-69
2021/06/26 06:06:02;;;;;;;10.80;9.70;;;30.90;1.00;;;;;;6096473;23;20427;-69
2021/06/26 06:08:27;;;;;;;12.13;11.13;;;30.20;1.00;;;;;;6106953;23;20242;-69
2021/06/26 06:10:53;;;;;;;10.20;9.30;;;30.10;1.00;;;;;;6107289;23;20163;-69
2021/06/26 06:13:21;;;;;;;10.37;9.57;;;30.50;1.00;;;;;;6107672;23;20154;-69
2021/06/26 06:15:48;;;;;;;11.70;10.70;;;31.20;1.00;;;;;;6106940;23;20214;-69
2021/06/26 06:18:15;;;;;;;11.30;10.30;;;33.50;1.00;;;;;;6095929;23;20876;-69
2021/06/26 06:20:42;;;;;;;10.23;9.13;;;34.20;1.00;;;;;;6107259;23;20387;-69
2021/06/26 06:23:08;;;;;;;10.10;9.30;;;33.80;1.00;;;;;;6107073;23;20425;-69
2021/06/26 06:25:35;;;;;;;10.70;9.63;;;31.60;1.00;;;;;;6107153;23;20438;-65
2021/06/26 06:28:02;;;;;;;10.47;9.67;;;30.60;1.00;;;;;;6107173;23;20395;-64
2021/06/26 06:30:30;;;;;;;10.97;9.97;;;29.20;1.00;;;;;;6097615;23;20466;-67
2021/06/26 06:32:57;;;;;;;10.93;10.03;;;29.10;1.00;;;;;;6107198;23;20842;-68
2021/06/26 06:35:24;;;;;;;10.90;9.83;;;29.10;1.00;;;;;;6120701;23;20446;-68
2021/06/26 06:37:50;;;;;;;9.00;8.30;;;28.40;1.00;;;;;;6107010;23;20395;-69
2021/06/26 06:40:15;;;;;;;10.20;9.40;;;27.50;1.00;;;;;;6106964;23;20396;-68
2021/06/26 06:42:42;;;;;;;12.37;11.13;;;27.70;1.00;;;;;;6107314;23;20586;-66
2021/06/26 06:45:09;;;;;;;11.47;10.40;;;27.50;1.00;;;;;;6106681;23;20156;-66
2021/06/26 06:47:34;;;;;;;10.17;9.10;;;27.50;1.00;;;;;;6097215;23;20396;-66
2021/06/26 06:50:00;;;;;;;10.73;9.73;;;27.60;1.00;;;;;;6107031;23;20424;-67
2021/06/26 06:52:26;;;;;;;11.30;10.27;;;27.90;1.00;;;;;;6107209;23;20147;-66
2021/06/26 06:54:51;;;;;;;10.37;9.37;;;29.80;1.00;;;;;;6107523;23;20400;-67
2021/06/26 06:57:20;;;;;;;10.70;9.80;;;31.90;1.00;;;;;;6107091;23;20156;-67
2021/06/26 06:59:46;;;;;;;9.40;8.60;;;32.70;1.00;;;;;;6120218;23;20178;-66
2021/06/26 07:02:11;;;;;;;8.63;7.87;;;32.70;1.00;;;;;;6107273;23;20402;-66
2021/06/26 07:04:37;;;;;;;8.33;7.60;;;33.60;1.00;;;;;;6107157;23;20584;-66
2021/06/26 07:07:03;;;;;;;7.20;6.60;;;32.10;1.00;;;;;;6107034;23;20559;-66
2021/06/26 07:09:31;;;;;;;8.17;7.50;;;31.30;1.00;;;;;;6106933;23;20175;-67
2021/06/26 07:11:56;;;;;;;6.53;5.90;;;32.20;1.00;;;;;;6097635;23;20242;-67
2021/06/26 07:14:22;;;;;;;7.40;6.80;;;32.80;1.00;;;;;;6107136;23;20855;-64
2021/06/26 07:16:47;;;;;;;7.20;6.60;;;31.50;1.00;;;;;;6107051;23;20563;-64
2021/06/26 07:19:13;;;;;;;6.90;6.40;;;31.10;1.00;;;;;;6107063;23;20170;-64
2021/06/26 07:21:39;;;;;;;6.77;6.27;;;30.70;1.00;;;;;;6107108;23;20164;-65
2021/06/26 07:24:05;;;;;;;6.50;5.33;;;30.10;1.00;;;;;;6072211;23;20160;-67
2021/06/26 07:26:30;;;;;;;6.97;6.27;;;29.80;1.00;;;;;;6106948;23;20182;-68
2021/06/26 07:28:56;;;;;;;6.63;6.10;;;28.80;1.00;;;;;;6108015;23;20510;-67
2021/06/26 07:31:21;;;;;;;9.63;7.20;;;29.20;1.00;;;;;;6100060;23;20238;-67
2021/06/26 07:33:47;;;;;;;7.40;5.80;;;29.60;1.00;;;;;;6109291;23;20164;-69
2021/06/26 07:36:12;;;;;;;5.73;5.23;;;29.70;1.00;;;;;;6108963;23;20152;-68
2021/06/26 07:38:38;;;;;;;5.37;4.33;;;30.20;1.00;;;;;;6108182;23;20183;-68
2021/06/26 07:41:03;;;;;;;5.33;4.87;;;30.30;1.00;;;;;;6108943;23;20163;-68
2021/06/26 07:43:29;;;;;;;5.93;5.30;;;29.70;1.00;;;;;;6109325;23;20164;-67
2021/06/26 07:45:55;;;;;;;7.07;6.27;;;29.20;1.00;;;;;;6098973;23;20171;-68
2021/06/26 07:48:20;;;;;;;6.60;5.47;;;28.60;1.00;;;;;;6108475;23;20676;-68
2021/06/26 07:50:50;;;;;;;6.40;5.63;;;27.70;1.00;;;;;;6099671;23;20179;-68
2021/06/26 07:53:16;;;;;;;5.60;5.10;;;27.20;1.00;;;;;;6107674;23;20152;-68
2021/06/26 07:55:42;;;;;;;6.80;5.53;;;27.40;1.00;;;;;;6108799;23;20384;-68
2021/06/26 07:58:07;;;;;;;6.57;5.97;;;27.10;1.00;;;;;;6108636;23;20391;-68
2021/06/26 08:00:33;;;;;;;7.50;6.63;;;27.20;1.00;;;;;;6109092;23;20567;-68
2021/06/26 08:02:58;;;;;;;6.77;6.17;;;27.00;1.00;;;;;;6108860;23;20578;-68
2021/06/26 08:05:24;;;;;;;6.30;5.70;;;26.90;1.00;;;;;;6122939;23;20643;-68
2021/06/26 08:07:50;;;;;;;6.00;5.50;;;27.30;1.00;;;;;;6108773;23;20155;-67
2021/06/26 08:10:16;;;;;;;6.50;5.90;;;27.50;1.00;;;;;;6122023;23;20607;-68
2021/06/26 08:12:41;;;;;;;7.27;6.53;;;27.60;1.00;;;;;;6108504;23;20241;-65
2021/06/26 08:15:07;;;;;;;8.47;5.97;;;27.20;1.00;;;;;;6108620;23;20159;-65
2021/06/26 08:17:33;;;;;;;7.57;6.37;;;27.70;1.00;;;;;;6110219;23;20160;-67
2021/06/26 08:19:58;;;;;;;7.07;6.33;;;27.90;1.00;;;;;;6109227;23;20871;-66
2021/06/26 08:22:24;;;;;;;7.37;6.67;;;27.70;1.00;;;;;;6109023;23;20191;-67
2021/06/26 08:24:49;;;;;;;8.10;6.80;;;27.50;1.00;;;;;;6108619;23;20479;-64
2021/06/26 08:27:15;;;;;;;10.10;6.40;;;28.00;1.00;;;;;;6098973;23;20179;-65
2021/06/26 08:29:40;;;;;;;7.60;6.17;;;28.40;1.00;;;;;;6108281;23;20476;-64
2021/06/26 08:32:06;;;;;;;7.07;6.47;;;27.70;1.00;;;;;;6108923;23;20531;-64
2021/06/26 08:34:32;;;;;;;9.50;7.70;;;27.80;1.00;;;;;;6108311;23;20151;-64
2021/06/26 08:36:57;;;;;;;8.50;7.70;;;28.30;1.00;;;;;;6108310;23;20414;-65
2021/06/26 08:39:23;;;;;;;9.17;7.80;;;28.40;1.00;;;;;;6107460;23;20684;-65
2021/06/26 08:41:49;;;;;;;9.40;8.10;;;28.80;1.00;;;;;;6121758;23;20550;-65
2021/06/26 08:44:19;;;;;;;9.70;8.40;;;28.10;1.00;;;;;;6098766;23;20174;-65
2021/06/26 08:46:49;;;;;;;8.60;7.80;;;28.20;1.00;;;;;;6108260;23;20714;-65
2021/06/26 08:49:15;;;;;;;9.93;8.77;;;28.60;1.00;;;;;;6098268;23;20428;-65
2021/06/26 08:51:41;;;;;;;9.63;8.60;;;28.70;1.00;;;;;;6108378;23;20434;-65
2021/06/26 08:54:12;;;;;;;9.70;8.70;;;28.60;1.00;;;;;;6108398;23;20399;-64
2021/06/26 08:56:37;;;;;;;9.03;8.13;;;27.70;1.00;;;;;;6098358;23;20882;-64
2021/06/26 08:59:03;;;;;;;9.30;8.40;;;28.30;1.00;;;;;;6107892;23;20620;-64
2021/06/26 09:01:29;;;;;;;8.20;7.40;;;28.50;1.00;;;;;;6108392;23;20246;-64
2021/06/26 09:04:09;;;;;;;9.47;8.47;;;28.50;1.00;;;;;;6108197;23;20155;-64
2021/06/26 09:06:55;;;;;;;10.03;9.13;;;27.10;1.00;;;;;;6098558;23;20182;-64
2021/06/26 09:09:34;;;;;;;10.37;9.37;;;27.40;1.00;;;;;;6098551;23;20716;-64
2021/06/26 09:12:09;;;;;;;10.57;9.00;;;27.10;1.00;;;;;;6108062;23;20379;-64
2021/06/26 09:14:36;;;;;;;9.70;8.80;;;27.50;1.00;;;;;;6108002;23;20803;-64
2021/06/26 09:17:03;;;;;;;10.30;9.20;;;28.20;1.00;;;;;;6107968;23;20822;-64
2021/06/26 09:19:31;;;;;;;9.73;8.40;;;28.70;1.00;;;;;;6098195;23;20404;-67
2021/06/26 09:22:04;;;;;;;9.90;8.70;;;28.90;1.00;;;;;;6108093;23;20392;-67
2021/06/26 09:24:41;;;;;;;12.97;9.77;;;29.10;1.00;;;;;;6098301;23;20426;-68
2021/06/26 09:27:06;;;;;;;9.90;8.90;;;29.50;1.00;;;;;;6097714;23;20853;-68
2021/06/26 09:29:32;;;;;;;9.03;8.20;;;29.70;1.00;;;;;;6107361;23;20423;-68
2021/06/26 09:32:00;;;;;;;9.67;8.77;;;29.40;1.00;;;;;;6107684;23;20169;-67
2021/06/26 09:34:38;;;;;;;9.90;9.00;;;28.90;1.00;;;;;;6097815;23;20843;-67
2021/06/26 09:37:06;;;;;;;10.37;9.37;;;28.30;1.00;;;;;;6097929;23;20396;-67
2021/06/26 09:39:36;;;;;;;10.67;9.77;;;27.80;1.00;;;;;;6107113;23;20392;-68
2021/06/26 09:42:14;;;;;;;10.70;9.70;;;28.00;1.00;;;;;;6107748;23;20379;-67
2021/06/26 09:45:00;;;;;;;10.67;9.63;;;27.80;1.00;;;;;;6098247;23;20459;-67
2021/06/26 09:47:27;;;;;;;11.50;10.30;;;27.10;1.00;;;;;;6107563;23;20471;-68
2021/06/26 09:49:53;;;;;;;11.33;9.20;;;27.10;1.00;;;;;;6107636;23;20423;-68
2021/06/26 09:52:18;;;;;;;13.23;10.40;;;27.60;1.00;;;;;;6098031;23;20402;-68
2021/06/26 09:54:44;;;;;;;11.10;10.10;;;27.40;1.00;;;;;;6107342;23;20166;-68
2021/06/26 09:57:10;;;;;;;11.80;10.70;;;27.30;1.00;;;;;;6106877;23;20210;-68
2021/06/26 09:59:36;;;;;;;10.70;9.70;;;27.80;1.00;;;;;;6096589;23;20152;-68
2021/06/26 10:02:03;;;;;;;10.00;9.00;;;27.70;1.00;;;;;;6107505;23;20356;-68
2021/06/26 10:04:29;;;;;;;10.10;9.20;;;27.30;1.00;;;;;;6107467;23;20399;-67
2021/06/26 10:06:56;;;;;;;9.23;8.33;;;27.30;1.00;;;;;;6107414;23;20395;-67
2021/06/26 10:09:22;;;;;;;10.17;9.07;;;27.70;1.00;;;;;;6107406;23;20207;-69
2021/06/26 10:11:48;;;;;;;8.73;7.87;;;27.80;1.00;;;;;;6107409;23;20391;-68
2021/06/26 10:14:14;;;;;;;9.97;9.00;;;28.30;1.00;;;;;;6106448;23;20392;-69
2021/06/26 10:16:42;;;;;;;10.80;9.87;;;28.90;1.00;;;;;;6107246;23;20395;-69
2021/06/26 10:19:10;;;;;;;9.60;8.70;;;28.70;1.00;;;;;;6107225;23;20678;-68
2021/06/26 10:21:36;;;;;;;9.40;8.40;;;28.60;1.00;;;;;;6098045;23;20733;-68
2021/06/26 10:24:08;;;;;;;10.80;9.53;;;28.50;1.00;;;;;;6107420;23;20379;-68
2021/06/26 10:26:39;;;;;;;11.37;9.40;;;28.30;1.00;;;;;;6107244;23;20635;-67
2021/06/26 10:29:05;;;;;;;10.23;9.30;;;28.30;1.00;;;;;;6106155;23;20430;-68
2021/06/26 10:31:43;;;;;;;12.03;10.20;;;28.20;1.00;;;;;;6107269;23;20388;-68
2021/06/26 10:34:21;;;;;;;11.03;10.07;;;27.50;1.00;;;;;;6107458;23;20434;-67
2021/06/26 10:36:56;;;;;;;9.90;9.07;;;27.60;1.00;;;;;;6107447;23;20376;-67
2021/06/26 10:39:28;;;;;;;10.63;9.63;;;28.40;1.00;;;;;;6107389;23;20407;-66
2021/06/26 10:42:00;;;;;;;11.07;10.00;;;28.20;1.00;;;;;;6107249;23;20392;-67
2021/06/26 10:44:27;;;;;;;9.87;8.97;;;27.40;1.00;;;;;;6097885;23;20398;-67
2021/06/26 10:46:52;;;;;;;11.40;10.40;;;27.50;1.00;;;;;;6107343;23;20387;-67
2021/06/26 10:49:28;;;;;;;11.37;10.37;;;26.60;1.00;;;;;;6106980;23;20877;-66
2021/06/26 10:52:05;;;;;;;10.90;8.90;;;26.40;1.00;;;;;;6097205;23;20376;-66
2021/06/26 10:54:30;;;;;;;11.00;10.00;;;27.30;1.00;;;;;;6107309;23;20795;-66
2021/06/26 10:57:05;;;;;;;18.23;10.27;;;27.40;1.00;;;;;;6106950;23;20474;-66
2021/06/26 10:59:31;;;;;;;11.23;10.20;;;27.90;1.00;;;;;;6107546;23;20171;-66
2021/06/26 11:02:05;;;;;;;11.10;10.00;;;28.50;1.00;;;;;;6108241;23;20391;-66
2021/06/26 11:04:33;;;;;;;11.23;10.17;;;28.80;1.00;;;;;;6109213;23;20386;-66
2021/06/26 11:07:10;;;;;;;10.93;9.93;;;28.00;1.00;;;;;;6099442;23;20425;-65
2021/06/26 11:09:36;;;;;;;11.33;10.33;;;27.70;1.00;;;;;;6099772;23;20426;-64
2021/06/26 11:12:17;;;;;;;11.53;10.47;;;27.50;1.00;;;;;;6099721;23;20466;-64
2021/06/26 11:14:53;;;;;;;12.20;10.13;;;27.90;1.00;;;;;;6099806;23;20194;-64
2021/06/26 11:17:22;;;;;;;10.97;9.43;;;28.00;1.00;;;;;;6099778;23;20375;-64
2021/06/26 11:19:48;;;;;;;10.33;9.40;;;28.30;1.00;;;;;;6099716;23;20372;-65
2021/06/26 11:22:14;;;;;;;9.77;8.87;;;28.60;1.00;;;;;;6109436;23;20701;-64
2021/06/26 11:24:44;;;;;;;9.47;8.57;;;28.10;1.00;;;;;;6109282;23;20412;-65
2021/06/26 11:27:13;;;;;;;8.57;7.63;;;28.00;1.00;;;;;;6109419;23;20394;-64
2021/06/26 11:29:41;;;;;;;9.90;9.00;;;27.80;1.00;;;;;;6108970;23;20445;-64
2021/06/26 11:32:19;;;;;;;11.53;10.53;;;28.40;1.00;;;;;;6108966;23;20402;-65
2021/06/26 11:35:08;;;;;;;10.00;9.10;;;27.90;1.00;;;;;;6099796;23;20395;-64
2021/06/26 11:37:42;;;;;;;11.30;10.20;;;27.40;1.00;;;;;;6109268;23;21001;-64
2021/06/26 11:40:14;;;;;;;10.23;9.33;;;27.90;1.00;;;;;;6097286;23;20399;-65
2021/06/26 11:42:50;;;;;;;10.70;9.60;;;28.20;1.00;;;;;;6099731;23;20553;-65
2021/06/26 11:45:20;;;;;;;9.80;8.90;;;27.70;1.00;;;;;;6099961;23;20401;-64
2021/06/26 11:47:46;;;;;;;11.50;10.50;;;27.70;1.00;;;;;;6109387;23;20726;-65
2021/06/26 11:50:13;;;;;;;10.97;9.87;;;27.10;1.00;;;;;;6108144;23;20418;-64
2021/06/26 11:52:39;;;;;;;11.03;9.70;;;27.50;1.00;;;;;;6109263;23;20559;-64
2021/06/26 11:55:05;;;;;;;11.80;10.60;;;28.20;1.00;;;;;;6109351;23;20398;-64
2021/06/26 11:57:31;;;;;;;15.17;9.80;;;27.90;1.00;;;;;;6108777;23;20152;-66
2021/06/26 11:59:57;;;;;;;10.30;9.40;;;27.50;1.00;;;;;;6108704;23;20423;-66
2021/06/26 12:02:33;;;;;;;10.93;9.83;;;27.70;1.00;;;;;;6099634;23;20234;-68
2021/06/26 12:05:00;;;;;;;10.13;9.23;;;26.80;1.00;;;;;;6108838;23;20386;-67
2021/06/26 12:07:37;;;;;;;9.63;8.73;;;26.20;1.00;;;;;;6097903;23;20442;-66
2021/06/26 12:10:08;;;;;;;10.83;9.83;;;26.50;1.00;;;;;;6099306;23;20449;-66
2021/06/26 12:12:38;;;;;;;11.40;10.30;;;26.40;1.00;;;;;;6099473;23;20446;-66
2021/06/26 12:15:06;;;;;;;11.67;10.47;;;27.10;1.00;;;;;;6108407;23;20459;-66
2021/06/26 12:17:32;;;;;;;11.33;10.23;;;27.30;1.00;;;;;;6099340;23;20391;-65
2021/06/26 12:20:05;;;;;;;13.40;10.80;;;27.60;1.00;;;;;;6108693;23;20827;-65
2021/06/26 12:22:30;;;;;;;13.07;11.67;;;28.20;1.00;;;;;;6108548;23;20179;-65
2021/06/26 12:25:08;;;;;;;11.23;10.07;;;28.70;1.00;;;;;;6108546;23;20411;-65
2021/06/26 12:27:34;;;;;;;11.10;10.13;;;28.80;1.00;;;;;;6108328;23;20186;-65
2021/06/26 12:30:06;;;;;;;9.63;8.70;;;29.00;1.00;;;;;;6098450;23;20841;-65
2021/06/26 12:32:36;;;;;;;13.03;11.93;;;28.60;1.00;;;;;;6098739;23;20380;-66
2021/06/26 12:35:04;;;;;;;11.07;10.03;;;27.60;1.00;;;;;;6108351;23;20396;-65
2021/06/26 12:37:31;;;;;;;10.33;9.43;;;27.70;1.00;;;;;;6108303;23;20392;-65
2021/06/26 12:40:04;;;;;;;12.97;11.77;;;27.90;1.00;;;;;;6098011;23;20431;-65
2021/06/26 12:42:29;;;;;;;9.50;8.70;;;27.70;1.00;;;;;;6107997;23;20458;-65
2021/06/26 12:44:58;;;;;;;9.47;8.50;;;26.60;1.00;;;;;;6108484;23;20388;-65
2021/06/26 12:47:24;;;;;;;9.37;8.47;;;27.40;1.00;;;;;;6098738;23;20163;-65